createdAt,value
2017-09-19T00:00:29.407Z,92.80
2017-09-19T00:01:29.383Z,90.91
2017-09-19T00:02:29.368Z,90.43
2017-09-19T00:03:29.352Z,90.53
2017-09-19T00:04:29.443Z,91.28
2017-09-19T00:05:29.326Z,91.38
2017-09-19T00:06:29.310Z,91.66
2017-09-19T00:07:29.295Z,91.76
2017-09-19T00:08:29.272Z,90.81
2017-09-19T00:09:29.257Z,89.48
2017-09-19T00:10:29.340Z,87.12
2017-09-19T00:11:29.226Z,87.21
2017-09-19T00:12:29.209Z,87.68
2017-09-19T00:13:29.192Z,87.68
2017-09-19T00:14:29.177Z,88.63
2017-09-19T00:15:29.161Z,88.25
2017-09-19T00:16:29.244Z,87.68
2017-09-19T00:17:29.134Z,88.73
2017-09-19T00:18:29.113Z,88.73
2017-09-19T00:19:29.103Z,88.63
2017-09-19T00:20:29.081Z,89.58
2017-09-19T00:21:29.070Z,89.96
2017-09-19T00:22:29.150Z,89.77
2017-09-19T00:23:29.032Z,89.77
2017-09-19T00:24:29.023Z,90.34
2017-09-19T00:25:29.002Z,90.38
2017-09-19T00:26:28.986Z,90.57
2017-09-19T00:27:28.970Z,90.72
2017-09-19T00:28:29.059Z,89.86
2017-09-19T00:29:28.938Z,89.48
2017-09-19T00:30:28.921Z,89.58
2017-09-19T00:31:28.911Z,89.77
2017-09-19T00:32:28.890Z,90.34
2017-09-19T00:33:28.874Z,89.67
2017-09-19T00:34:28.960Z,89.11
2017-09-19T00:35:28.847Z,89.11
2017-09-19T00:36:28.826Z,88.73
2017-09-19T00:37:28.815Z,88.73
2017-09-19T00:38:28.799Z,89.58
2017-09-19T00:39:28.784Z,89.39
2017-09-19T00:40:28.863Z,89.96
2017-09-19T00:41:28.748Z,89.67
2017-09-19T00:42:28.729Z,90.24
2017-09-19T00:43:28.715Z,89.96
2017-09-19T00:44:28.704Z,90.05
2017-09-19T00:45:28.689Z,89.86
2017-09-19T00:46:28.773Z,89.72
2017-09-19T00:47:28.657Z,90.15
2017-09-19T00:48:28.637Z,89.53
2017-09-19T00:49:28.620Z,87.97
2017-09-19T00:50:28.605Z,86.74
2017-09-19T00:51:28.618Z,86.93
2017-09-19T00:52:28.678Z,86.16
2017-09-19T00:53:28.555Z,86.74
2017-09-19T00:54:28.540Z,86.55
2017-09-19T00:55:28.523Z,87.02
2017-09-19T00:56:28.509Z,87.12
2017-09-19T00:57:28.492Z,87.68
2017-09-19T00:58:28.575Z,88.35
2017-09-19T00:59:28.459Z,89.11
2017-09-19T01:00:28.444Z,89.86
2017-09-19T01:01:28.427Z,89.48
2017-09-19T01:02:28.411Z,89.48
2017-09-19T01:03:28.398Z,89.86
2017-09-19T01:04:28.485Z,89.77
2017-09-19T01:05:28.363Z,89.96
2017-09-19T01:06:28.346Z,90.24
2017-09-19T01:07:28.331Z,89.96
2017-09-19T01:08:28.315Z,89.86
2017-09-19T01:09:28.299Z,89.29
2017-09-19T01:10:28.387Z,89.67
2017-09-19T01:11:28.267Z,90.24
2017-09-19T01:12:28.256Z,90.05
2017-09-19T01:13:28.233Z,89.86
2017-09-19T01:14:28.223Z,89.96
2017-09-19T01:15:28.201Z,90.05
2017-09-19T01:16:28.287Z,90.05
2017-09-19T01:17:28.175Z,89.67
2017-09-19T01:18:28.159Z,90.34
2017-09-19T01:19:28.143Z,89.67
2017-09-19T01:20:28.126Z,89.48
2017-09-19T01:21:28.103Z,88.44
2017-09-19T01:22:28.188Z,87.87
2017-09-19T01:23:28.078Z,88.06
2017-09-19T01:24:28.056Z,88.73
2017-09-19T01:25:28.039Z,89.11
2017-09-19T01:26:28.024Z,89.58
2017-09-19T01:27:28.008Z,89.96
2017-09-19T01:28:28.097Z,89.39
2017-09-19T01:29:27.980Z,88.06
2017-09-19T01:30:27.959Z,84.84
2017-09-19T01:31:27.948Z,85.41
2017-09-19T01:32:27.926Z,86.45
2017-09-19T01:33:27.909Z,87.12
2017-09-19T01:34:27.993Z,88.35
2017-09-19T01:35:27.877Z,88.73
2017-09-19T01:36:27.861Z,89.01
2017-09-19T01:37:27.845Z,88.73
2017-09-19T01:38:27.834Z,88.63
2017-09-19T01:39:27.813Z,88.92
2017-09-19T01:40:27.902Z,89.39
2017-09-19T01:41:27.784Z,89.58
2017-09-19T01:42:27.764Z,89.39
2017-09-19T01:43:27.748Z,89.39
2017-09-19T01:44:27.732Z,90.05
2017-09-19T01:45:27.713Z,89.58
2017-09-19T01:46:27.799Z,89.77
2017-09-19T01:47:27.682Z,89.77
2017-09-19T01:48:27.666Z,89.77
2017-09-19T01:49:27.654Z,89.39
2017-09-19T01:50:27.636Z,89.77
2017-09-19T01:51:27.621Z,89.29
2017-09-19T01:52:27.703Z,89.11
2017-09-19T01:53:27.588Z,89.39
2017-09-19T01:54:27.568Z,89.58
2017-09-19T01:55:27.551Z,89.58
2017-09-19T01:56:27.536Z,89.20
2017-09-19T01:57:27.519Z,89.48
2017-09-19T01:58:27.603Z,89.48
2017-09-19T01:59:27.486Z,89.67
2017-09-19T02:00:27.472Z,88.92
2017-09-19T02:01:27.453Z,88.44
2017-09-19T02:02:27.438Z,86.83
2017-09-19T02:03:27.421Z,86.35
2017-09-19T02:04:27.507Z,87.21
2017-09-19T02:05:27.390Z,87.97
2017-09-19T02:06:27.374Z,88.35
2017-09-19T02:07:27.357Z,88.54
2017-09-19T02:08:27.347Z,88.73
2017-09-19T02:09:27.325Z,88.92
2017-09-19T02:10:27.407Z,89.11
2017-09-19T02:11:27.297Z,88.63
2017-09-19T02:12:27.276Z,88.63
2017-09-19T02:13:27.264Z,89.11
2017-09-19T02:14:27.242Z,88.92
2017-09-19T02:15:27.237Z,89.11
2017-09-19T02:16:27.312Z,88.92
2017-09-19T02:17:27.199Z,88.73
2017-09-19T02:18:27.178Z,87.97
2017-09-19T02:19:27.163Z,88.06
2017-09-19T02:20:27.146Z,88.44
2017-09-19T02:21:27.130Z,88.63
2017-09-19T02:22:27.218Z,88.44
2017-09-19T02:23:27.096Z,88.54
2017-09-19T02:24:27.081Z,87.87
2017-09-19T02:25:27.066Z,87.87
2017-09-19T02:26:27.047Z,87.87
2017-09-19T02:27:27.037Z,87.97
2017-09-19T02:28:27.121Z,87.87
2017-09-19T02:29:26.999Z,88.54
2017-09-19T02:30:27.082Z,88.44
2017-09-19T02:31:26.968Z,88.06
2017-09-19T02:32:26.951Z,87.97
2017-09-19T02:33:26.932Z,88.35
2017-09-19T02:34:27.017Z,87.97
2017-09-19T02:35:26.907Z,88.25
2017-09-19T02:36:26.886Z,88.06
2017-09-19T02:37:26.866Z,87.68
2017-09-19T02:38:26.858Z,87.87
2017-09-19T02:39:26.834Z,87.87
2017-09-19T02:40:26.918Z,87.87
2017-09-19T02:41:26.817Z,87.68
2017-09-19T02:42:26.785Z,87.40
2017-09-19T02:43:26.768Z,87.12
2017-09-19T02:44:26.754Z,87.30
2017-09-19T02:45:26.736Z,87.30
2017-09-19T02:46:26.820Z,87.30
2017-09-19T02:47:26.702Z,87.40
2017-09-19T02:48:26.686Z,87.02
2017-09-19T02:49:26.669Z,87.21
2017-09-19T02:50:26.657Z,87.49
2017-09-19T02:51:26.637Z,87.40
2017-09-19T02:52:26.725Z,87.68
2017-09-19T02:53:26.606Z,87.97
2017-09-19T02:54:26.592Z,87.77
2017-09-19T02:55:26.570Z,87.59
2017-09-19T02:56:26.553Z,87.30
2017-09-19T02:57:26.536Z,87.40
2017-09-19T02:58:26.618Z,87.30
2017-09-19T02:59:26.513Z,87.21
2017-09-19T03:00:26.491Z,87.45
2017-09-19T03:01:26.468Z,87.92
2017-09-19T03:02:26.451Z,88.02
2017-09-19T03:03:26.435Z,87.54
2017-09-19T03:04:26.525Z,86.12
2017-09-19T03:05:26.403Z,85.65
2017-09-19T03:06:26.386Z,86.22
2017-09-19T03:07:26.469Z,86.41
2017-09-19T03:08:26.353Z,86.88
2017-09-19T03:09:26.334Z,86.88
2017-09-19T03:10:26.424Z,86.88
2017-09-19T03:11:26.303Z,86.98
2017-09-19T03:12:26.293Z,87.26
2017-09-19T03:13:26.267Z,87.35
2017-09-19T03:14:26.260Z,86.98
2017-09-19T03:15:26.235Z,87.64
2017-09-19T03:16:26.323Z,87.54
2017-09-19T03:17:26.200Z,87.45
2017-09-19T03:18:26.184Z,88.02
2017-09-19T03:19:26.269Z,87.83
2017-09-19T03:20:26.153Z,88.02
2017-09-19T03:21:26.135Z,87.83
2017-09-19T03:22:26.220Z,87.26
2017-09-19T03:23:26.100Z,87.07
2017-09-19T03:24:26.085Z,87.07
2017-09-19T03:25:26.066Z,86.88
2017-09-19T03:26:26.051Z,86.88
2017-09-19T03:27:26.035Z,86.98
2017-09-19T03:28:26.124Z,86.98
2017-09-19T03:29:26.006Z,86.60
2017-09-19T03:30:25.984Z,86.69
2017-09-19T03:31:25.967Z,86.98
2017-09-19T03:32:25.950Z,87.26
2017-09-19T03:33:25.935Z,86.98
2017-09-19T03:34:26.022Z,87.35
2017-09-19T03:35:25.899Z,88.02
2017-09-19T03:36:25.883Z,87.54
2017-09-19T03:37:25.865Z,87.73
2017-09-19T03:38:25.849Z,88.02
2017-09-19T03:39:25.834Z,87.35
2017-09-19T03:40:25.922Z,87.26
2017-09-19T03:41:25.799Z,87.26
2017-09-19T03:42:25.788Z,87.26
2017-09-19T03:43:25.766Z,86.98
2017-09-19T03:44:25.755Z,87.26
2017-09-19T03:45:25.731Z,87.16
2017-09-19T03:46:25.816Z,87.07
2017-09-19T03:47:25.698Z,85.74
2017-09-19T03:48:25.683Z,85.93
2017-09-19T03:49:25.666Z,86.12
2017-09-19T03:50:25.649Z,85.93
2017-09-19T03:51:25.632Z,86.12
2017-09-19T03:52:25.716Z,86.41
2017-09-19T03:53:25.634Z,86.22
2017-09-19T03:54:25.582Z,85.27
2017-09-19T03:55:25.564Z,85.55
2017-09-19T03:56:25.547Z,85.55
2017-09-19T03:57:25.530Z,85.74
2017-09-19T03:58:25.614Z,86.22
2017-09-19T03:59:25.502Z,86.03
2017-09-19T04:00:25.486Z,86.50
2017-09-19T04:01:25.464Z,86.50
2017-09-19T04:02:25.447Z,86.69
2017-09-19T04:03:25.430Z,86.60
2017-09-19T04:04:25.511Z,86.60
2017-09-19T04:05:25.394Z,86.50
2017-09-19T04:06:25.377Z,86.41
2017-09-19T04:07:25.362Z,86.60
2017-09-19T04:08:25.349Z,86.41
2017-09-19T04:09:25.327Z,86.88
2017-09-19T04:10:25.408Z,87.16
2017-09-19T04:11:25.298Z,87.07
2017-09-19T04:12:25.281Z,87.26
2017-09-19T04:13:25.262Z,87.07
2017-09-19T04:14:25.241Z,87.26
2017-09-19T04:15:25.223Z,87.07
2017-09-19T04:16:25.307Z,87.35
2017-09-19T04:17:25.189Z,87.35
2017-09-19T04:18:25.173Z,87.45
2017-09-19T04:19:25.160Z,87.64
2017-09-19T04:20:25.140Z,87.64
2017-09-19T04:21:25.119Z,88.02
2017-09-19T04:22:25.202Z,87.64
2017-09-19T04:23:25.087Z,87.73
2017-09-19T04:24:25.069Z,87.83
2017-09-19T04:25:25.051Z,87.92
2017-09-19T04:26:25.034Z,87.64
2017-09-19T04:27:25.017Z,87.07
2017-09-19T04:28:25.101Z,87.26
2017-09-19T04:29:24.989Z,87.54
2017-09-19T04:30:24.965Z,87.54
2017-09-19T04:31:24.955Z,87.64
2017-09-19T04:32:24.932Z,87.45
2017-09-19T04:33:24.927Z,87.92
2017-09-19T04:34:24.998Z,87.92
2017-09-19T04:35:24.882Z,88.02
2017-09-19T04:36:24.862Z,88.21
2017-09-19T04:37:24.844Z,88.11
2017-09-19T04:38:24.833Z,88.49
2017-09-19T04:39:24.814Z,88.40
2017-09-19T04:40:24.895Z,88.21
2017-09-19T04:41:24.781Z,88.02
2017-09-19T04:42:24.758Z,86.79
2017-09-19T04:43:24.743Z,86.79
2017-09-19T04:44:24.726Z,87.26
2017-09-19T04:45:24.713Z,87.54
2017-09-19T04:46:24.790Z,88.02
2017-09-19T04:47:24.680Z,88.02
2017-09-19T04:48:24.656Z,88.21
2017-09-19T04:49:24.639Z,88.02
2017-09-19T04:50:24.627Z,88.11
2017-09-19T04:51:24.605Z,88.68
2017-09-19T04:52:24.689Z,88.21
2017-09-19T04:53:24.571Z,89.06
2017-09-19T04:54:24.553Z,89.06
2017-09-19T04:55:24.535Z,88.96
2017-09-19T04:56:24.519Z,88.78
2017-09-19T04:57:24.500Z,89.72
2017-09-19T04:58:24.590Z,88.59
2017-09-19T04:59:24.467Z,88.68
2017-09-19T05:00:24.449Z,88.11
2017-09-19T05:01:24.433Z,88.78
2017-09-19T05:02:24.419Z,88.59
2017-09-19T05:03:24.404Z,88.59
2017-09-19T05:04:24.482Z,89.06
2017-09-19T05:05:24.364Z,88.78
2017-09-19T05:06:24.346Z,88.30
2017-09-19T05:07:24.332Z,87.92
2017-09-19T05:08:24.312Z,87.92
2017-09-19T05:09:24.300Z,87.07
2017-09-19T05:10:24.376Z,86.69
2017-09-19T05:11:24.260Z,85.08
2017-09-19T05:12:24.243Z,85.46
2017-09-19T05:13:24.231Z,85.36
2017-09-19T05:14:24.208Z,86.22
2017-09-19T05:15:24.191Z,85.93
2017-09-19T05:16:24.281Z,86.12
2017-09-19T05:17:24.156Z,86.50
2017-09-19T05:18:24.146Z,86.60
2017-09-19T05:19:24.121Z,87.07
2017-09-19T05:20:24.107Z,87.07
2017-09-19T05:21:24.088Z,87.07
2017-09-19T05:22:24.369Z,87.16
2017-09-19T05:23:24.054Z,86.60
2017-09-19T05:24:24.037Z,87.07
2017-09-19T05:25:24.018Z,86.60
2017-09-19T05:26:24.002Z,86.31
2017-09-19T05:27:23.986Z,87.07
2017-09-19T05:28:24.067Z,86.50
2017-09-19T05:29:23.948Z,86.12
2017-09-19T05:30:23.933Z,86.50
2017-09-19T05:31:23.914Z,86.31
2017-09-19T05:32:23.897Z,86.60
2017-09-19T05:33:23.879Z,86.41
2017-09-19T05:34:23.963Z,86.41
2017-09-19T05:35:23.845Z,86.79
2017-09-19T05:36:23.834Z,86.69
2017-09-19T05:37:23.809Z,86.60
2017-09-19T05:38:23.792Z,86.03
2017-09-19T05:39:23.777Z,86.31
2017-09-19T05:40:24.010Z,86.69
2017-09-19T05:41:23.742Z,86.50
2017-09-19T05:42:23.723Z,86.50
2017-09-19T05:43:23.706Z,86.50
2017-09-19T05:44:23.690Z,86.12
2017-09-19T05:45:23.772Z,86.69
2017-09-19T05:46:23.755Z,86.41
2017-09-19T05:47:23.637Z,87.26
2017-09-19T05:48:23.626Z,86.98
2017-09-19T05:49:23.603Z,86.98
2017-09-19T05:50:23.586Z,86.69
2017-09-19T05:51:23.568Z,86.88
2017-09-19T05:52:23.651Z,86.60
2017-09-19T05:53:23.558Z,87.16
2017-09-19T05:54:23.522Z,87.16
2017-09-19T05:55:23.499Z,87.07
2017-09-19T05:56:23.488Z,87.26
2017-09-19T05:57:23.466Z,87.26
2017-09-19T05:58:23.747Z,86.98
2017-09-19T05:59:23.430Z,87.16
2017-09-19T06:00:23.422Z,86.98
2017-09-19T06:01:23.402Z,86.69
2017-09-19T06:02:23.379Z,86.98
2017-09-19T06:03:23.362Z,86.69
2017-09-19T06:04:23.445Z,87.16
2017-09-19T06:05:23.329Z,87.16
2017-09-19T06:06:23.311Z,87.16
2017-09-19T06:07:23.300Z,87.26
2017-09-19T06:08:23.277Z,86.88
2017-09-19T06:09:23.260Z,87.16
2017-09-19T06:10:23.344Z,87.35
2017-09-19T06:11:23.227Z,87.26
2017-09-19T06:12:23.209Z,87.16
2017-09-19T06:13:23.192Z,87.16
2017-09-19T06:14:23.176Z,87.16
2017-09-19T06:15:23.159Z,86.98
2017-09-19T06:16:23.242Z,87.26
2017-09-19T06:17:23.123Z,87.07
2017-09-19T06:18:23.108Z,86.98
2017-09-19T06:19:23.092Z,86.79
2017-09-19T06:20:23.079Z,87.07
2017-09-19T06:21:23.062Z,87.16
2017-09-19T06:22:23.139Z,87.07
2017-09-19T06:23:23.027Z,87.26
2017-09-19T06:24:23.013Z,86.98
2017-09-19T06:25:22.993Z,86.88
2017-09-19T06:26:22.970Z,87.07
2017-09-19T06:27:22.953Z,87.35
2017-09-19T06:28:23.088Z,87.35
2017-09-19T06:29:22.920Z,87.64
2017-09-19T06:30:22.907Z,87.45
2017-09-19T06:31:22.890Z,86.98
2017-09-19T06:32:22.868Z,87.35
2017-09-19T06:33:22.853Z,87.45
2017-09-19T06:34:22.934Z,86.98
2017-09-19T06:35:22.817Z,86.98
2017-09-19T06:36:22.802Z,87.16
2017-09-19T06:37:22.783Z,87.45
2017-09-19T06:38:22.775Z,87.07
2017-09-19T06:39:22.758Z,88.02
2017-09-19T06:40:23.038Z,88.21
2017-09-19T06:41:22.717Z,87.83
2017-09-19T06:42:22.699Z,87.83
2017-09-19T06:43:22.681Z,88.02
2017-09-19T06:44:22.664Z,88.30
2017-09-19T06:45:22.648Z,88.96
2017-09-19T06:46:22.731Z,90.01
2017-09-19T06:47:22.614Z,89.82
2017-09-19T06:48:22.598Z,89.06
2017-09-19T06:49:22.582Z,89.72
2017-09-19T06:50:22.571Z,89.72
2017-09-19T06:51:22.547Z,89.91
2017-09-19T06:52:22.829Z,89.72
2017-09-19T06:53:22.512Z,89.72
2017-09-19T06:54:22.496Z,89.44
2017-09-19T06:55:22.477Z,89.15
2017-09-19T06:56:22.462Z,89.53
2017-09-19T06:57:22.449Z,89.53
2017-09-19T06:58:22.528Z,89.34
2017-09-19T06:59:22.412Z,89.53
2017-09-19T07:00:22.399Z,89.53
2017-09-19T07:01:22.382Z,89.53
2017-09-19T07:02:22.361Z,89.53
2017-09-19T07:03:22.346Z,89.34
2017-09-19T07:04:22.477Z,89.58
2017-09-19T07:05:22.315Z,90.24
2017-09-19T07:06:22.294Z,90.15
2017-09-19T07:07:22.280Z,90.05
2017-09-19T07:08:22.266Z,89.77
2017-09-19T07:09:22.242Z,89.39
2017-09-19T07:10:22.382Z,89.29
2017-09-19T07:11:22.211Z,89.20
2017-09-19T07:12:22.200Z,88.92
2017-09-19T07:13:22.182Z,88.73
2017-09-19T07:14:22.160Z,88.54
2017-09-19T07:15:22.144Z,88.25
2017-09-19T07:16:22.280Z,88.35
2017-09-19T07:17:22.112Z,87.40
2017-09-19T07:18:22.101Z,87.30
2017-09-19T07:19:22.078Z,85.03
2017-09-19T07:20:22.061Z,84.84
2017-09-19T07:21:22.045Z,84.84
2017-09-19T07:22:22.329Z,84.94
2017-09-19T07:23:22.013Z,85.31
2017-09-19T07:24:22.002Z,86.55
2017-09-19T07:25:21.979Z,87.21
2017-09-19T07:26:21.964Z,86.93
2017-09-19T07:27:21.946Z,87.12
2017-09-19T07:28:22.031Z,87.59
2017-09-19T07:29:21.919Z,87.21
2017-09-19T07:30:21.903Z,87.30
2017-09-19T07:31:21.887Z,87.59
2017-09-19T07:32:21.866Z,87.87
2017-09-19T07:33:21.847Z,88.06
2017-09-19T07:34:21.932Z,87.68
2017-09-19T07:35:21.820Z,88.06
2017-09-19T07:36:21.799Z,87.49
2017-09-19T07:37:21.781Z,87.87
2017-09-19T07:38:21.765Z,87.77
2017-09-19T07:39:21.750Z,88.25
2017-09-19T07:40:21.884Z,88.25
2017-09-19T07:41:21.716Z,88.63
2017-09-19T07:42:21.698Z,88.35
2017-09-19T07:43:21.683Z,89.11
2017-09-19T07:44:21.671Z,88.92
2017-09-19T07:45:21.648Z,89.01
2017-09-19T07:46:21.733Z,88.63
2017-09-19T07:47:21.618Z,88.54
2017-09-19T07:48:21.599Z,88.44
2017-09-19T07:49:21.582Z,88.06
2017-09-19T07:50:21.564Z,88.16
2017-09-19T07:51:21.550Z,88.73
2017-09-19T07:52:21.689Z,88.63
2017-09-19T07:53:21.521Z,88.92
2017-09-19T07:54:21.498Z,88.82
2017-09-19T07:55:21.482Z,89.67
2017-09-19T07:56:21.467Z,90.34
2017-09-19T07:57:21.448Z,90.05
2017-09-19T07:58:21.534Z,89.86
2017-09-19T07:59:21.421Z,90.53
2017-09-19T08:00:21.401Z,90.62
2017-09-19T08:01:21.382Z,91.85
2017-09-19T08:02:21.365Z,92.42
2017-09-19T08:03:21.350Z,92.14
2017-09-19T08:04:21.432Z,92.52
2017-09-19T08:05:21.320Z,92.61
2017-09-19T08:06:21.297Z,92.42
2017-09-19T08:07:21.282Z,92.80
2017-09-19T08:08:21.264Z,93.18
2017-09-19T08:09:21.248Z,93.18
2017-09-19T08:10:21.331Z,92.99
2017-09-19T08:11:21.219Z,93.27
2017-09-19T08:12:21.203Z,93.70
2017-09-19T08:13:21.180Z,93.61
2017-09-19T08:14:21.162Z,94.46
2017-09-19T08:15:21.151Z,94.08
2017-09-19T08:16:21.234Z,94.27
2017-09-19T08:17:21.110Z,94.18
2017-09-19T08:18:21.096Z,94.37
2017-09-19T08:19:21.110Z,93.32
2017-09-19T08:20:21.061Z,93.42
2017-09-19T08:21:21.044Z,92.47
2017-09-19T08:22:21.125Z,92.38
2017-09-19T08:23:21.009Z,92.61
2017-09-19T08:24:20.996Z,93.08
2017-09-19T08:25:20.980Z,92.33
2017-09-19T08:26:20.963Z,92.71
2017-09-19T08:27:20.942Z,91.76
2017-09-19T08:28:21.023Z,92.42
2017-09-19T08:29:20.908Z,92.14
2017-09-19T08:30:20.890Z,92.42
2017-09-19T08:31:20.880Z,91.76
2017-09-19T08:32:20.857Z,92.42
2017-09-19T08:33:20.844Z,92.71
2017-09-19T08:34:20.924Z,92.61
2017-09-19T08:35:20.806Z,91.76
2017-09-19T08:36:20.788Z,91.76
2017-09-19T08:37:20.771Z,91.76
2017-09-19T08:38:20.755Z,91.95
2017-09-19T08:39:20.739Z,92.33
2017-09-19T08:40:20.822Z,92.61
2017-09-19T08:41:20.705Z,91.76
2017-09-19T08:42:20.687Z,91.47
2017-09-19T08:43:20.675Z,91.66
2017-09-19T08:44:20.653Z,90.81
2017-09-19T08:45:20.635Z,91.09
2017-09-19T08:46:20.720Z,91.47
2017-09-19T08:47:20.605Z,91.76
2017-09-19T08:48:20.586Z,91.95
2017-09-19T08:49:20.573Z,91.76
2017-09-19T08:50:20.557Z,90.62
2017-09-19T08:51:20.542Z,89.86
2017-09-19T08:52:20.625Z,90.24
2017-09-19T08:53:20.502Z,89.67
2017-09-19T08:54:20.485Z,90.24
2017-09-19T08:55:20.470Z,90.43
2017-09-19T08:56:20.457Z,90.53
2017-09-19T08:57:20.433Z,90.05
2017-09-19T08:58:20.517Z,89.48
2017-09-19T08:59:20.402Z,89.58
2017-09-19T09:00:20.390Z,88.06
2017-09-19T09:01:20.366Z,88.63
2017-09-19T09:02:20.350Z,90.34
2017-09-19T09:03:20.335Z,90.24
2017-09-19T09:04:20.418Z,90.05
2017-09-19T09:05:20.305Z,89.77
2017-09-19T09:06:20.285Z,90.05
2017-09-19T09:07:20.268Z,89.96
2017-09-19T09:08:20.249Z,89.39
2017-09-19T09:09:20.238Z,90.34
2017-09-19T09:10:20.321Z,90.43
2017-09-19T09:11:20.200Z,90.15
2017-09-19T09:12:20.184Z,90.34
2017-09-19T09:13:20.165Z,90.05
2017-09-19T09:14:20.154Z,90.53
2017-09-19T09:15:20.131Z,90.24
2017-09-19T09:16:20.215Z,90.05
2017-09-19T09:17:20.098Z,90.43
2017-09-19T09:18:20.082Z,91.66
2017-09-19T09:19:20.065Z,91.47
2017-09-19T09:20:20.050Z,90.72
2017-09-19T09:21:20.031Z,90.81
2017-09-19T09:22:20.113Z,92.04
2017-09-19T09:23:19.996Z,91.95
2017-09-19T09:24:19.980Z,91.85
2017-09-19T09:25:19.969Z,92.42
2017-09-19T09:26:19.946Z,91.76
2017-09-19T09:27:19.935Z,89.77
2017-09-19T09:28:20.015Z,89.58
2017-09-19T09:29:19.895Z,88.92
2017-09-19T09:30:19.878Z,90.05
2017-09-19T09:31:19.862Z,89.86
2017-09-19T09:32:19.846Z,89.67
2017-09-19T09:33:19.833Z,89.86
2017-09-19T09:34:19.948Z,90.24
2017-09-19T09:35:19.796Z,89.11
2017-09-19T09:36:19.778Z,88.54
2017-09-19T09:37:19.761Z,87.12
2017-09-19T09:38:19.745Z,86.59
2017-09-19T09:39:19.729Z,86.02
2017-09-19T09:40:19.813Z,85.45
2017-09-19T09:41:19.739Z,86.02
2017-09-19T09:42:19.684Z,86.02
2017-09-19T09:43:19.664Z,86.30
2017-09-19T09:44:19.653Z,86.78
2017-09-19T09:45:19.630Z,86.49
2017-09-19T09:46:19.715Z,86.30
2017-09-19T09:47:19.598Z,86.11
2017-09-19T09:48:19.588Z,84.88
2017-09-19T09:49:19.565Z,83.27
2017-09-19T09:50:19.549Z,82.32
2017-09-19T09:51:19.533Z,82.42
2017-09-19T09:52:19.772Z,81.27
2017-09-19T09:53:19.499Z,83.55
2017-09-19T09:54:19.482Z,84.50
2017-09-19T09:55:19.467Z,84.78
2017-09-19T09:56:19.451Z,84.69
2017-09-19T09:57:19.466Z,83.74
2017-09-19T09:58:19.518Z,84.03
2017-09-19T09:59:19.401Z,83.27
2017-09-19T10:00:19.385Z,83.65
2017-09-19T10:01:19.370Z,83.55
2017-09-19T10:02:19.356Z,83.27
2017-09-19T10:03:19.335Z,82.60
2017-09-19T10:04:19.427Z,82.70
2017-09-19T10:05:19.309Z,81.94
2017-09-19T10:06:19.287Z,81.37
2017-09-19T10:07:19.270Z,83.36
2017-09-19T10:08:19.259Z,84.88
2017-09-19T10:09:19.237Z,86.02
2017-09-19T10:10:19.324Z,84.78
2017-09-19T10:11:19.210Z,84.50
2017-09-19T10:12:19.195Z,83.74
2017-09-19T10:13:19.183Z,83.27
2017-09-19T10:14:19.156Z,83.08
2017-09-19T10:15:19.146Z,82.60
2017-09-19T10:16:19.231Z,83.17
2017-09-19T10:17:19.109Z,82.13
2017-09-19T10:18:19.097Z,82.23
2017-09-19T10:19:19.077Z,83.17
2017-09-19T10:20:19.060Z,83.27
2017-09-19T10:21:19.043Z,82.32
2017-09-19T10:22:19.129Z,81.56
2017-09-19T10:23:19.012Z,80.62
2017-09-19T10:24:18.996Z,80.14
2017-09-19T10:25:18.978Z,79.76
2017-09-19T10:26:19.063Z,79.00
2017-09-19T10:27:18.948Z,78.05
2017-09-19T10:28:19.032Z,79.10
2017-09-19T10:29:18.916Z,79.14
2017-09-19T10:30:18.900Z,78.66
2017-09-19T10:31:18.883Z,78.09
2017-09-19T10:32:18.874Z,78.95
2017-09-19T10:33:18.853Z,78.19
2017-09-19T10:34:18.937Z,79.04
2017-09-19T10:35:18.827Z,78.75
2017-09-19T10:36:18.811Z,77.81
2017-09-19T10:37:18.790Z,77.14
2017-09-19T10:38:18.774Z,76.29
2017-09-19T10:39:18.760Z,75.15
2017-09-19T10:40:18.844Z,74.87
2017-09-19T10:41:18.727Z,73.82
2017-09-19T10:42:18.718Z,72.21
2017-09-19T10:43:18.698Z,70.59
2017-09-19T10:44:18.682Z,71.36
2017-09-19T10:45:18.672Z,73.07
2017-09-19T10:46:18.757Z,74.49
2017-09-19T10:47:18.642Z,72.40
2017-09-19T10:48:18.623Z,73.25
2017-09-19T10:49:18.611Z,73.92
2017-09-19T10:50:18.597Z,75.62
2017-09-19T10:51:18.575Z,76.86
2017-09-19T10:52:18.667Z,77.05
2017-09-19T10:53:18.550Z,73.25
2017-09-19T10:54:18.535Z,73.44
2017-09-19T10:55:18.514Z,73.72
2017-09-19T10:56:18.499Z,74.39
2017-09-19T10:57:18.488Z,74.87
2017-09-19T10:58:18.579Z,75.24
2017-09-19T10:59:18.458Z,75.43
2017-09-19T11:00:18.443Z,75.15
2017-09-19T11:01:18.521Z,74.39
2017-09-19T11:02:18.412Z,74.49
2017-09-19T11:03:18.391Z,73.63
2017-09-19T11:04:18.482Z,73.07
2017-09-19T11:05:18.362Z,72.78
2017-09-19T11:06:18.355Z,73.54
2017-09-19T11:07:18.330Z,74.58
2017-09-19T11:08:18.315Z,74.64
2017-09-19T11:09:18.298Z,73.82
2017-09-19T11:10:18.383Z,74.30
2017-09-19T11:11:18.268Z,74.20
2017-09-19T11:12:18.253Z,75.11
2017-09-19T11:13:18.238Z,74.77
2017-09-19T11:14:18.220Z,74.58
2017-09-19T11:15:18.204Z,74.45
2017-09-19T11:16:18.294Z,73.22
2017-09-19T11:17:18.172Z,73.22
2017-09-19T11:18:18.158Z,74.45
2017-09-19T11:19:18.142Z,73.88
2017-09-19T11:20:18.126Z,74.26
2017-09-19T11:21:18.111Z,73.60
2017-09-19T11:22:18.199Z,74.07
2017-09-19T11:23:18.081Z,74.83
2017-09-19T11:24:18.063Z,74.45
2017-09-19T11:25:18.048Z,76.06
2017-09-19T11:26:18.030Z,79.00
2017-09-19T11:27:18.020Z,80.43
2017-09-19T11:28:18.098Z,79.38
2017-09-19T11:29:17.988Z,79.76
2017-09-19T11:30:17.966Z,81.09
2017-09-19T11:31:17.950Z,81.94
2017-09-19T11:32:17.934Z,82.55
2017-09-19T11:33:17.917Z,81.88
2017-09-19T11:34:18.005Z,82.46
2017-09-19T11:35:17.893Z,81.60
2017-09-19T11:36:17.877Z,81.70
2017-09-19T11:37:17.861Z,81.51
2017-09-19T11:38:17.841Z,82.17
2017-09-19T11:39:17.830Z,82.36
2017-09-19T11:40:17.913Z,82.65
2017-09-19T11:41:17.793Z,81.98
2017-09-19T11:42:17.782Z,81.79
2017-09-19T11:43:17.762Z,81.26
2017-09-19T11:44:17.747Z,79.74
2017-09-19T11:45:17.738Z,78.89
2017-09-19T11:46:17.816Z,79.08
2017-09-19T11:47:17.702Z,79.36
2017-09-19T11:48:17.687Z,79.27
2017-09-19T11:49:17.673Z,77.47
2017-09-19T11:50:17.657Z,76.61
2017-09-19T11:51:17.645Z,74.24
2017-09-19T11:52:17.728Z,73.57
2017-09-19T11:53:17.613Z,74.24
2017-09-19T11:54:17.598Z,75.76
2017-09-19T11:55:17.582Z,74.62
2017-09-19T11:56:17.573Z,74.71
2017-09-19T11:57:17.559Z,75.38
2017-09-19T11:58:17.688Z,75.47
2017-09-19T11:59:17.525Z,73.86
2017-09-19T12:00:17.508Z,74.33
2017-09-19T12:01:17.500Z,75.15
2017-09-19T12:02:17.478Z,76.14
2017-09-19T12:03:17.467Z,76.95
2017-09-19T12:04:17.549Z,77.24
2017-09-19T12:05:17.433Z,78.42
2017-09-19T12:06:17.419Z,77.75
2017-09-19T12:07:17.410Z,78.32
2017-09-19T12:08:17.390Z,77.56
2017-09-19T12:09:17.377Z,78.89
2017-09-19T12:10:17.461Z,79.17
2017-09-19T12:11:17.351Z,76.14
2017-09-19T12:12:17.332Z,73.10
2017-09-19T12:13:17.315Z,72.81
2017-09-19T12:14:17.301Z,73.57
2017-09-19T12:15:17.288Z,75.19
2017-09-19T12:16:17.372Z,75.47
2017-09-19T12:17:17.261Z,77.94
2017-09-19T12:18:17.241Z,78.61
2017-09-19T12:19:17.227Z,78.99
2017-09-19T12:20:17.212Z,76.90
2017-09-19T12:21:17.198Z,75.95
2017-09-19T12:22:17.287Z,75.76
2017-09-19T12:23:17.167Z,76.14
2017-09-19T12:24:17.155Z,76.99
2017-09-19T12:25:17.144Z,76.99
2017-09-19T12:26:17.122Z,76.14
2017-09-19T12:27:17.107Z,77.28
2017-09-19T12:28:17.193Z,80.88
2017-09-19T12:29:17.078Z,80.79
2017-09-19T12:30:17.064Z,81.60
2017-09-19T12:31:17.048Z,83.31
2017-09-19T12:32:17.033Z,83.22
2017-09-19T12:33:17.023Z,83.97
2017-09-19T12:34:17.102Z,83.50
2017-09-19T12:35:16.995Z,83.78
2017-09-19T12:36:16.973Z,83.22
2017-09-19T12:37:16.963Z,83.22
2017-09-19T12:38:16.941Z,82.36
2017-09-19T12:39:16.935Z,82.46
2017-09-19T12:40:17.017Z,82.93
2017-09-19T12:41:16.895Z,82.17
2017-09-19T12:42:16.880Z,81.13
2017-09-19T12:43:16.865Z,80.94
2017-09-19T12:44:16.855Z,80.56
2017-09-19T12:45:16.836Z,80.08
2017-09-19T12:46:16.920Z,81.79
2017-09-19T12:47:16.808Z,81.23
2017-09-19T12:48:16.789Z,80.84
2017-09-19T12:49:16.773Z,81.51
2017-09-19T12:50:16.763Z,81.98
2017-09-19T12:51:16.746Z,83.22
2017-09-19T12:52:16.827Z,84.07